createdAt,value
2022-12-13T00:04:04.906Z,0
2022-12-13T00:09:09.370Z,0
2022-12-13T00:14:14.034Z,0
2022-12-13T00:19:17.474Z,0
2022-12-13T00:24:22.038Z,0
2022-12-13T00:29:26.546Z,0
2022-12-13T00:34:30.081Z,0
2022-12-13T00:39:34.683Z,0
2022-12-13T00:44:39.152Z,0
2022-12-13T00:49:43.679Z,0
2022-12-13T00:54:47.257Z,0
2022-12-13T00:59:51.799Z,0
2022-12-13T01:04:56.350Z,0
2022-12-13T01:09:59.908Z,0
2022-12-13T01:15:04.439Z,0
2022-12-13T01:20:08.955Z,0
2022-12-13T01:25:12.937Z,0
2022-12-13T01:30:17.025Z,0
2022-12-13T01:35:21.596Z,0
2022-12-13T01:40:26.457Z,0
2022-12-13T01:45:29.694Z,0
2022-12-13T01:50:34.226Z,0
2022-12-13T01:55:41.793Z,0
2022-12-13T02:00:42.336Z,0
2022-12-13T02:05:46.880Z,0
2022-12-13T02:10:51.385Z,0
2022-12-13T02:15:54.972Z,0
2022-12-13T02:20:59.461Z,0
2022-12-13T02:26:04.039Z,0
2022-12-13T02:31:07.616Z,0
2022-12-13T02:36:12.150Z,0
2022-12-13T02:41:16.652Z,0
2022-12-13T02:46:20.279Z,0
2022-12-13T02:51:24.699Z,0
2022-12-13T02:56:28.305Z,0
2022-12-13T03:01:40.160Z,0
2022-12-13T03:06:37.471Z,0
2022-12-13T03:11:40.966Z,0
2022-12-13T03:16:45.444Z,0
2022-12-13T03:21:49.960Z,0
2022-12-13T03:26:53.521Z,0
2022-12-13T03:31:58.084Z,0
2022-12-13T03:37:02.594Z,0
2022-12-13T03:42:07.143Z,0
2022-12-13T03:47:10.670Z,0
2022-12-13T03:52:15.197Z,0
2022-12-13T03:57:19.771Z,0
2022-12-13T04:02:31.426Z,0
2022-12-13T04:07:27.871Z,0
2022-12-13T04:12:32.416Z,0
2022-12-13T04:17:35.963Z,0
2022-12-13T04:22:40.461Z,0
2022-12-13T04:27:45.113Z,0
2022-12-13T04:32:48.576Z,0
2022-12-13T04:37:53.119Z,0
2022-12-13T04:42:57.636Z,0
2022-12-13T04:48:02.169Z,0
2022-12-13T04:53:05.717Z,0
2022-12-13T04:58:10.261Z,0
2022-12-13T05:03:14.815Z,0
2022-12-13T05:08:19.553Z,0
2022-12-13T05:13:24.014Z,0
2022-12-13T05:18:28.544Z,0
2022-12-13T05:23:32.099Z,0
2022-12-13T05:28:36.681Z,0
2022-12-13T05:33:41.145Z,0
2022-12-13T05:38:44.704Z,0
2022-12-13T05:43:49.263Z,0
2022-12-13T05:48:53.817Z,0
2022-12-13T05:53:58.346Z,0
2022-12-13T05:59:01.898Z,0
2022-12-13T06:04:06.415Z,0
2022-12-13T06:09:10.936Z,0
2022-12-13T06:14:22.113Z,0
2022-12-13T06:19:19.027Z,0
2022-12-13T06:24:23.602Z,0
2022-12-13T06:29:27.152Z,0
2022-12-13T06:34:31.663Z,0
2022-12-13T06:39:36.246Z,0
2022-12-13T06:44:39.801Z,0
2022-12-13T06:49:44.859Z,0
2022-12-13T06:54:48.829Z,0
2022-12-13T06:59:53.418Z,0
2022-12-13T07:04:56.926Z,0
2022-12-13T07:10:00.498Z,0
2022-12-13T07:15:05.062Z,5
2022-12-13T07:20:09.901Z,11
2022-12-13T07:25:28.611Z,16
2022-12-13T07:30:17.697Z,22
2022-12-13T07:35:22.158Z,33
2022-12-13T07:40:26.759Z,67
2022-12-13T07:45:30.300Z,118
2022-12-13T07:50:37.283Z,157
2022-12-13T07:55:39.368Z,202
2022-12-13T08:00:46.163Z,258
2022-12-13T08:05:47.531Z,331
2022-12-13T08:10:51.975Z,393
2022-12-13T08:15:55.621Z,455
2022-12-13T08:21:00.107Z,540
2022-12-13T08:26:04.588Z,613
2022-12-13T08:31:08.200Z,675
2022-12-13T08:36:12.701Z,708
2022-12-13T08:41:17.233Z,849
2022-12-13T08:46:21.851Z,950
2022-12-13T08:51:29.517Z,1035
2022-12-13T08:56:29.826Z,1040
2022-12-13T09:01:34.384Z,1018
2022-12-13T09:06:39.044Z,1192
2022-12-13T09:11:43.578Z,1029
2022-12-13T09:16:51.048Z,1035
2022-12-13T09:21:51.676Z,1451
2022-12-13T09:26:57.257Z,1276
2022-12-13T09:32:00.778Z,1113
2022-12-13T09:37:04.310Z,1591
2022-12-13T09:42:10.181Z,1125
2022-12-13T09:47:14.045Z,1766
2022-12-13T09:52:21.661Z,1321
2022-12-13T09:57:30.881Z,1468
2022-12-13T10:02:26.005Z,1327
2022-12-13T10:07:30.516Z,1839
2022-12-13T10:12:34.050Z,1811
2022-12-13T10:17:38.662Z,1766
2022-12-13T10:22:52.184Z,1423
2022-12-13T10:27:46.655Z,2008
2022-12-13T10:32:51.189Z,2109
2022-12-13T10:37:55.784Z,2143
2022-12-13T10:42:59.312Z,2086
2022-12-13T10:48:04.457Z,2103
2022-12-13T10:53:08.412Z,1980
2022-12-13T10:58:12.931Z,2266
2022-12-13T11:03:16.450Z,2317
2022-12-13T11:08:21.034Z,2227
2022-12-13T11:13:25.867Z,2407
2022-12-13T11:18:29.077Z,2255
2022-12-13T11:23:32.635Z,2131
2022-12-13T11:28:37.155Z,2255
2022-12-13T11:33:48.154Z,1839
2022-12-13T11:38:46.224Z,2126
2022-12-13T11:43:49.746Z,2053
2022-12-13T11:48:54.303Z,2143
2022-12-13T11:53:58.877Z,2334
2022-12-13T11:59:04.990Z,1957
2022-12-13T12:04:06.932Z,1653
2022-12-13T12:09:11.451Z,2148
2022-12-13T12:14:15.034Z,2216
2022-12-13T12:19:19.569Z,1957
2022-12-13T12:24:24.109Z,2221
2022-12-13T12:29:27.613Z,1856
2022-12-13T12:34:32.158Z,1755
2022-12-13T12:39:36.715Z,888
2022-12-13T12:44:41.206Z,888
2022-12-13T12:49:44.796Z,461
2022-12-13T12:54:49.330Z,360
2022-12-13T12:59:59.700Z,416
2022-12-13T13:04:57.409Z,410
2022-12-13T13:10:16.370Z,618
2022-12-13T13:15:06.460Z,787
2022-12-13T13:20:12.236Z,489
2022-12-13T13:25:14.572Z,433
2022-12-13T13:30:19.061Z,438
2022-12-13T13:35:22.632Z,337
2022-12-13T13:40:30.559Z,230
2022-12-13T13:45:31.926Z,202
2022-12-13T13:50:36.233Z,185
2022-12-13T13:55:39.845Z,174
2022-12-13T14:00:44.326Z,174
2022-12-13T14:05:48.884Z,168
2022-12-13T14:10:52.449Z,163
2022-12-13T14:15:57.014Z,151
2022-12-13T14:21:01.446Z,129
2022-12-13T14:26:05.157Z,106
2022-12-13T14:31:09.599Z,101
2022-12-13T14:36:14.122Z,90
2022-12-13T14:41:17.684Z,73
2022-12-13T14:46:22.266Z,61
2022-12-13T14:51:26.760Z,50
2022-12-13T14:56:31.254Z,45
2022-12-13T15:01:36.131Z,33
2022-12-13T15:06:40.472Z,22
2022-12-13T15:11:45.035Z,16
2022-12-13T15:16:48.641Z,11
2022-12-13T15:21:54.123Z,5
2022-12-13T15:26:57.647Z,5
2022-12-13T15:32:01.245Z,0
2022-12-13T15:37:05.709Z,0
2022-12-13T15:42:09.299Z,0
2022-12-13T15:47:28.118Z,0
2022-12-13T15:52:18.348Z,0
2022-12-13T15:57:21.929Z,0
2022-12-13T16:02:26.431Z,0
2022-12-13T16:07:30.948Z,0
2022-12-13T16:12:34.537Z,0
2022-12-13T16:17:39.028Z,0
2022-12-13T16:22:43.573Z,0
2022-12-13T16:27:47.140Z,0
2022-12-13T16:37:59.382Z,0
2022-12-13T16:43:00.752Z,0
2022-12-13T16:48:04.318Z,0
2022-12-13T16:53:11.692Z,0
2022-12-13T16:58:13.413Z,0
2022-12-13T17:03:16.932Z,0
2022-12-13T17:08:21.426Z,0
2022-12-13T17:13:26.590Z,0
2022-12-13T17:18:29.519Z,0
2022-12-13T17:23:34.072Z,0
2022-12-13T17:28:38.616Z,0
2022-12-13T17:33:42.156Z,0
2022-12-13T17:38:46.704Z,0
2022-12-13T17:43:51.272Z,0
2022-12-13T17:48:55.786Z,0
2022-12-13T17:53:59.328Z,0
2022-12-13T17:59:03.907Z,0
2022-12-13T18:04:08.383Z,0
2022-12-13T18:09:11.992Z,0
2022-12-13T18:14:16.495Z,0
2022-12-13T18:19:21.010Z,0
2022-12-13T18:24:24.586Z,0
2022-12-13T18:29:29.183Z,0
2022-12-13T18:34:33.633Z,0
2022-12-13T18:39:37.194Z,0
2022-12-13T18:44:41.770Z,0
2022-12-13T18:49:54.960Z,0
2022-12-13T18:54:54.520Z,0
2022-12-13T18:59:55.005Z,0
2022-12-13T19:04:58.917Z,0
2022-12-13T19:10:03.412Z,0
2022-12-13T19:15:07.000Z,0
2022-12-13T19:20:11.564Z,0
2022-12-13T19:25:16.041Z,0
2022-12-13T19:30:19.681Z,0
2022-12-13T19:35:24.148Z,0
2022-12-13T19:40:28.699Z,0
2022-12-13T19:45:32.285Z,0
2022-12-13T19:50:36.768Z,0
2022-12-13T19:55:40.314Z,0
2022-12-13T20:00:44.965Z,0
2022-12-13T20:05:49.433Z,0
2022-12-13T20:10:52.973Z,0
2022-12-13T20:15:57.689Z,0
2022-12-13T20:21:11.502Z,0
2022-12-13T20:26:05.561Z,0
2022-12-13T20:31:10.221Z,0
2022-12-13T20:36:24.145Z,0
2022-12-13T20:41:19.211Z,0
2022-12-13T20:46:22.905Z,0
2022-12-13T20:51:27.307Z,0
2022-12-13T20:56:31.816Z,0
2022-12-13T21:01:35.518Z,0
2022-12-13T21:06:39.920Z,0
2022-12-13T21:11:44.485Z,0
2022-12-13T21:16:48.154Z,0
2022-12-13T21:21:52.556Z,0
2022-12-13T21:26:57.083Z,0
2022-12-13T21:32:00.716Z,0
2022-12-13T21:37:05.180Z,0
2022-12-13T21:42:09.713Z,0
2022-12-13T21:47:14.319Z,0
2022-12-13T21:52:17.809Z,0
2022-12-13T21:57:22.295Z,0
2022-12-13T22:02:26.935Z,0
2022-12-13T22:07:30.457Z,0
2022-12-13T22:12:34.927Z,0
2022-12-13T22:17:39.527Z,0
2022-12-13T22:22:43.045Z,0
2022-12-13T22:27:47.599Z,0
2022-12-13T22:32:52.144Z,0
2022-12-13T22:38:00.114Z,0
2022-12-13T22:43:00.257Z,0
2022-12-13T22:48:04.739Z,0
2022-12-13T22:53:09.282Z,0
2022-12-13T22:58:12.796Z,0
2022-12-13T23:03:17.394Z,0
2022-12-13T23:08:21.894Z,0
2022-12-13T23:13:25.602Z,0
2022-12-13T23:18:30.391Z,0
2022-12-13T23:23:34.489Z,0
2022-12-13T23:28:38.088Z,0
2022-12-13T23:33:42.605Z,0
2022-12-13T23:38:47.158Z,0
2022-12-13T23:43:52.102Z,0
2022-12-13T23:48:55.261Z,0
2022-12-13T23:53:59.782Z,0
2022-12-13T23:59:04.291Z,0
